METAR AND TAF INFORMATION
METAR FOR LGIR
ADDS - METARS form results

(2312 UTC 22 July 2019)
Data provider http://aviationweather.gov/metar/data/
 
METAR text: LGIR 222250Z 29015KT CAVOK 26/16 Q1011 NOSIG
Conditions at: LGIR (IRAKLION (CIV/AF, GR) observed 2250 UTC 22 July 2019
Temperature: 26.0°C (79°F)
Dewpoint: 16.0°C (61°F) [RH = 54%]
Pressure (altimeter): 29.85 inches Hg (1011.0 mb)
Winds: from the WNW (290 degrees) at 17 MPH (15 knots; 7.7 m/s)
Visibility: 6 or more miles (10+ km)
Ceiling: ceiling and visibility are OK
Clouds: unknown
Weather: no significant weather observed at this time

METAR text: LGIR 222220Z 28014KT CAVOK 26/15 Q1011 NOSIG
Conditions at: LGIR (IRAKLION (CIV/AF, GR) observed 2220 UTC 22 July 2019
Temperature: 26.0°C (79°F)
Dewpoint: 15.0°C (59°F) [RH = 51%]
Pressure (altimeter): 29.85 inches Hg (1011.0 mb)
Winds: from the W (280 degrees) at 16 MPH (14 knots; 7.2 m/s)
Visibility: 6 or more miles (10+ km)
Ceiling: ceiling and visibility are OK
Clouds: unknown
Weather: no significant weather observed at this time

Forecast for: LGIR (IRAKLION (CIV/AF, GR)
Text: TAF LGIR 222300Z 2300/2324 29018KT 9999 FEW025
Forecast period: 0000 UTC 23 July 2019 to 0000 UTC 24 July 2019
Forecast type: FROM: standard forecast or significant change
Winds: from the WNW (290 degrees) at 21 MPH (18 knots; 9.3 m/s)
Visibility: 6 or more miles 10+ km)
Ceiling: at least 12,000 feet AGL
Clouds: few clouds at 2500 feet AGL
Weather: no significant weather forecast for this period

 AIRPORT MAP

 RUNWAY INFORMATION
Runway 09 Runway length 8800 ft Runway width 148 ft
Runway elevation 78 ft Runway displaced threshold 1565 ft Runway heading 95
Runway 27 Runway length 8800 ft Runway width 148 ft
Runway elevation 82 ft Runway displaced threshold 0 ft Runway heading 275
Runway 12 Runway length 5138 ft Runway width 164 ft
Runway elevation 57 ft Runway displaced threshold 499 ft Runway heading 126
Runway 30 Runway length 5138 ft Runway width 164 ft
Runway elevation 115 ft Runway displaced threshold 0 ft Runway heading 306
Runway 18 Runway length 2559 ft Runway width 131 ft
Runway elevation 78 ft Runway displaced threshold 0 ft Runway heading 180
Runway 36 Runway length 2559 ft Runway width 131 ft
Runway elevation 115 ft Runway displaced threshold 328 ft Runway heading 0

 AIRPORT FREQUENCIES
Type A/G Name KAZANTZAKI Frequency 563.7 MHZ
Type APP Name IRAKLION A Frequency 123.975 MHZ
Type ATIS Name ATIS Frequency 127.55 MHZ
Type DIR Name IRAKLION D Frequency 118.025 MHZ
Type GND Name KAZANTZAKI Frequency 121.7 MHZ
Type TRSA Name IRAKLION R Frequency 123.975 MHZ
Type TWR Name KAZANTZAKI Frequency 120.85 MHZ

 AIRPORT NEAR NAVIGATION AIDS
Type NDB Name Iraklion Frequency 431 KHZ
Type VOR-DME Name Iraklion Frequency 108800 KHZ
Type TACAN Name Iraklion Frequency 108300 KHZ



Powered by Heron Airways VA. All Rights Reserved © 2009 [v2.6.2]